HST,Max TemperatureF,Mean TemperatureF,Min TemperatureF,Max Dew PointF,MeanDew PointF,Min DewpointF,Max Humidity, Mean Humidity, Min Humidity, Max Sea Level PressureIn, Mean Sea Level PressureIn, Min Sea Level PressureIn, Max VisibilityMiles, Mean VisibilityMiles, Min VisibilityMiles, Max Wind SpeedMPH, Mean Wind SpeedMPH, Max Gust SpeedMPH,PrecipitationIn, CloudCover, Events, WindDirDegrees
2011-12-1,82,75,68,67,62,55,71,63,52,30.02,29.95,29.90,10,10,10,14,8,,0.00,1,,28
2011-12-2,81,76,72,69,66,60,79,69,62,30.04,30.00,29.94,10,10,10,15,7,,0.00,1,,141
2011-12-3,79,76,73,71,67,62,79,72,62,30.05,30.00,29.96,10,10,10,10,6,,0.00,1,,82
2011-12-4,82,76,70,69,65,63,81,69,62,30.06,30.02,29.98,10,10,10,15,5,,0.00,2,,154
2011-12-5,82,76,70,67,63,54,76,64,50,30.04,29.98,29.89,10,10,10,18,7,29,0.00,2,,82
2011-12-6,81,74,68,64,60,55,73,59,47,29.99,29.94,29.89,10,10,10,12,6,,0.00,0,,48
2011-12-7,80,74,69,66,62,57,71,64,45,30.01,29.95,29.90,10,10,10,23,6,32,0.00,1,,116
2011-12-8,82,76,69,64,60,55,73,59,39,30.04,29.98,29.92,10,10,10,18,7,21,0.00,1,,101
2011-12-9,82,76,69,62,58,52,71,55,39,30.01,29.97,29.91,10,10,10,23,7,29,0.00,3,,51
2011-12-10,80,74,68,64,61,53,73,62,44,30.00,29.95,29.88,10,10,10,22,9,24,0.00,2,,79
2011-12-11,81,76,70,67,63,58,73,64,52,29.99,29.94,29.91,10,10,10,13,7,23,0.00,3,,132
2011-12-12,80,76,73,70,65,60,79,69,58,30.02,29.97,29.91,10,10,10,15,6,,0.00,0,,152
2011-12-13,80,76,72,72,69,64,89,79,64,30.03,29.99,29.94,10,10,7,13,5,,0.11,3,Rain,181
2011-12-14,79,75,71,70,68,65,94,80,69,30.06,30.02,29.99,10,10,7,8,5,,0.21,5,Rain,345
2011-12-15,80,74,68,68,65,63,87,75,67,30.10,30.04,30.00,10,10,10,8,4,,0.00,1,,45
2011-12-16,80,74,68,67,64,62,81,71,54,30.08,30.03,29.96,10,10,10,10,5,,0.00,0,,110
2011-12-17,82,75,68,66,63,55,76,66,42,30.04,30.00,29.94,10,10,10,20,7,32,0.00,2,,100
2011-12-18,80,74,68,63,61,57,84,63,52,30.01,29.97,29.92,10,10,10,13,7,,0.00,1,,127
2011-12-19,80,76,71,68,62,58,79,64,54,30.04,29.97,29.91,10,10,10,12,7,,0.00,3,,155
2011-12-20,79,76,72,67,65,61,74,69,62,30.00,29.94,29.87,10,10,10,12,5,,0.00,2,,151
2011-12-21,81,76,70,67,63,61,76,68,60,29.96,29.90,29.84,10,10,10,10,5,,0.00,2,,131
2011-12-22,81,76,70,68,63,56,76,64,51,29.99,29.94,29.89,10,10,10,14,6,,0.00,3,,127
2011-12-23,80,74,68,65,60,47,78,62,38,30.07,30.02,29.96,10,10,10,23,6,32,0.00,4,,63
2011-12-24,84,75,66,63,58,53,75,56,37,30.11,30.05,29.98,10,10,10,23,6,30,0.00,1,,114
2011-12-25,79,74,68,65,59,52,68,58,49,30.14,30.09,30.01,10,10,10,17,7,,0.00,1,,137
2011-12-26,80,73,66,64,60,56,73,62,50,30.12,30.08,30.03,10,10,10,12,5,,0.00,1,,176
2011-12-27,80,73,66,64,60,56,73,62,52,30.11,30.07,30.00,10,10,10,10,4,,0.00,0,,150
2011-12-28,79,72,66,65,61,57,75,65,54,30.14,30.10,30.07,10,10,10,9,4,,0.00,2,,103
2011-12-29,78,72,66,65,60,55,83,65,47,30.11,30.05,30.00,10,10,10,16,6,,0.00,4,,104
2011-12-30,80,74,69,62,58,54,68,57,51,30.09,30.03,29.99,10,10,10,9,6,,0.00,2,,18
2011-12-31,84,68,51,66,59,52,100,61,39,30.07,30.01,29.96,10,10,4,23,6,,0.00,0,,40